Sign In / Sign Up
 
 
Guiding Lights Regatta. Leg 1. 19/02 - 25/02



Race Date (UTC) # I place II place III place Track
Race2881 2018-02-22 07:16:43 8 glop 245 Tigerloo34 achmed
Race2880 2018-02-22 07:14:56 2 E Daje marenostrum.it
Race2879 2018-02-22 07:12:25 8 bul21 Glide PIPPUS
Race2878 2018-02-22 07:08:43 5 glop 245 achmed Taleggio
Race2877 2018-02-22 07:06:03 4 Glide bul21 Aquaphobia
Race2876 2018-02-22 07:02:00 2 achmed Jore ITA 505
Race2875 2018-02-22 06:57:56 6 glop 245 Glide E Daje
Race2874 2018-02-22 06:56:25 2 achmed Gian Marco
Race2873 2018-02-22 06:52:29 7 glop 245 Glide E Daje
Race2872 2018-02-22 06:50:34 2 achmed Matteo
Race2871 2018-02-22 06:45:59 6 glop 245 Flapper Glide
Race2870 2018-02-22 06:42:07 2 achmed Fuzzy Duck
Race2869 2018-02-22 06:40:20 2 Flapper theJ
Race2868 2018-02-22 06:37:33 5 glop 245 Berkut1020 Glide
Race2867 2018-02-22 06:35:43 8 gangbang E Daje Юльчик
Race2866 2018-02-22 06:34:27 2 Flapper sagi
Race2865 2018-02-22 06:31:17 6 Dream OCS RS glop 245
Race2864 2018-02-22 06:29:50 4 fuakata Hihihihihi SMOKIFY
Race2863 2018-02-22 06:28:30 8 dessy4185 Albarone gangbang
Race2862 2018-02-22 06:26:57 2 007 gangbang
Race2861 2018-02-22 06:25:18 8 Berkut1020 Mauri glop 245
Race2860 2018-02-22 06:23:52 2 SMOKIFY ORBAN
Race2859 2018-02-22 06:23:18 2 shekhar theJ
Race2858 2018-02-22 06:21:56 5 dessy4185 Albarone PONTEDEUME
Race2857 2018-02-22 06:18:29 6 glop 245 Obiedyer OCS RS
Race2856 2018-02-22 06:14:12 3 sigid Fabio energia ita 682
Race2855 2018-02-22 06:12:19 5 olina K6 OCS RS Berkut1020
Race2854 2018-02-22 06:09:57 2 ORBAN sagi
Race2853 2018-02-22 06:05:49 2 SMOKIFY guillo
Race2852 2018-02-22 05:40:27 2 Y.C. Tempio Pausania sagi
Race2851 2018-02-22 05:34:46 3 gangbang Rocinante 1183 guillo
Race2850 2018-02-22 05:33:09 4 Rocinante 1183 gangbang Rodise
Race2849 2018-02-22 05:29:07 3 PONTEDEUME penna shekhar
Race2848 2018-02-22 05:27:05 4 Rodise gangbang Rocinante 1183
Race2847 2018-02-22 05:25:06 2 PONTEDEUME catch22
Race2846 2018-02-22 05:23:30 2 shekhar occse
Race2845 2018-02-22 05:18:44 2 catch22 AUS 814
Race2844 2018-02-22 05:00:02 2 shekhar Bartłomiej
Race2843 2018-02-22 04:56:44 6 Kaito Kid Zephyr achmed
Race2842 2018-02-22 04:53:12 2 safeboat daddysship
Race2841 2018-02-22 04:47:42 7 achmed Mike gangbang
Race2840 2018-02-22 04:41:05 6 Zephyr Mike achmed
Race2839 2018-02-22 04:38:49 3 Zephyr achmed BUL 136628
Race2838 2018-02-22 04:32:43 4 ANLCTN BUL 136628 achmed
Race2837 2018-02-22 04:21:32 2 ANLCTN 420
Race2836 2018-02-22 04:09:48 2 420 Baco
Race2835 2018-02-22 03:59:21 6 Rocinante 1183 AVM galerna
Race2834 2018-02-22 03:57:23 7 tribord 06 AVM Rocinante 1183
Race2833 2018-02-22 03:52:29 3 AVM Ur2slow clandestino
Race2832 2018-02-22 03:51:13 3 tribord 06 galerna el chori
Race2830 2018-02-22 03:46:15 2 Ur2slow AVM
Race2829 2018-02-22 03:41:54 3 galerna tribord 06 Mike_alfaa
Race2828 2018-02-22 03:40:24 4 Ur2slow luccaluke5 Obiedyer
Race2827 2018-02-22 03:37:40 2 tribord 06 galerna
Race2826 2018-02-22 03:31:43 3 Ur2slow luccaluke5 Federico
Race2825 2018-02-22 03:30:16 8 tribord 06 BeteNoir surly mermaid
Race2824 2018-02-22 03:28:15 3 Jeff Ur2slow achmed
Race2823 2018-02-22 03:26:42 2 Ur2slow achmed
Race2822 2018-02-22 03:23:29 8 clandestino tribord 06 fuakata
Race2821 2018-02-22 03:21:07 2 Jeff Sergio
Race2820 2018-02-22 03:19:12 4 tribord 06 420 achmed
Race2819 2018-02-22 03:14:47 3 luccaluke5 Federico surly mermaid
Race2818 2018-02-22 03:08:52 6 Kiwi Magic BeteNoir achmed
Race2817 2018-02-22 03:04:28 6 tribord 06 BeteNoir MED
Race2816 2018-02-22 03:02:41 3 MED Taleggio tribord 06
Race2815 2018-02-22 03:01:22 2 420 Taleggio
Race2814 2018-02-22 02:57:52 2 HotTuna! Swedish Fish
Race2813 2018-02-22 02:49:41 3 MED Taleggio tribord 06
Race2812 2018-02-22 02:40:53 2 420 Jeff
Race2811 2018-02-22 02:22:10 2 HotTuna! Leonidas
Race2810 2018-02-22 02:15:18 2 Забияка IC24 PUR
Race2809 2018-02-22 02:10:08 3 clandestino MATADOR IC24 PUR
Race2808 2018-02-22 02:04:56 4 MATADOR IC24 PUR clandestino
Race2807 2018-02-22 02:01:52 5 MED B_dog Забияка
Race2806 2018-02-22 01:58:43 4 MATADOR clandestino antua
Race2805 2018-02-22 01:55:24 8 IC24 PUR MED B_dog
Race2804 2018-02-22 01:54:13 2 MED daddysship
Race2803 2018-02-22 01:53:10 2 MED daddysship
Race2802 2018-02-22 01:50:00 2 clandestino antua
Race2801 2018-02-22 01:47:23 8 Malvinas Brent Rocket to Russia
Race2800 2018-02-22 01:44:46 5 clandestino antua Kiwi Magic
Race2799 2018-02-22 01:42:06 5 fedexx Cortobalu3 Забияка
Race2798 2018-02-22 01:39:05 7 ANLCTN B_dog Rocket to Russia
Race2797 2018-02-22 01:35:54 8 M I N clandestino Star
Race2796 2018-02-22 01:35:12 2 ANLCTN antua
Race2795 2018-02-22 01:33:51 2 Kiwi Magic IC24 PUR
Race2794 2018-02-22 01:31:58 3 Cortobalu3 Rocket to Russia antua
Race2793 2018-02-22 01:31:06 8 fedexx 7 of 9 clandestino
Race2792 2018-02-22 01:30:10 2 ONO Brent
Race2791 2018-02-22 01:26:46 8 ANLCTN TTR Pura Vida
Race2790 2018-02-22 01:24:34 8 fedexx 7 of 9 clandestino
Race2789 2018-02-22 01:21:58 8 ANLCTN Stugots Troika3
Race2788 2018-02-22 01:20:08 8 AVM MATADOR IC24 PUR
Race2787 2018-02-22 01:17:20 6 fedexx clandestino MXR
Race2786 2018-02-22 01:14:38 8 Stugots ANLCTN Buda Boys
Race2785 2018-02-22 01:12:14 5 IC24 PUR Rocket to Russia Mayin Hora
Race2784 2018-02-22 01:09:32 8 Albarone Windwillow between the sheets
Race2783 2018-02-22 01:08:16 8 Stugots ANLCTN Забияка
Race2782 2018-02-22 01:06:31 6 Brent Rocket to Russia Dingo
Race2781 2018-02-22 01:04:18 4 Albarone Windwillow ace